createdAt,value
2022-09-09T00:00:48.601Z,12.35
2022-09-09T00:01:48.563Z,12.37
2022-09-09T00:02:48.648Z,12.39
2022-09-09T00:03:48.555Z,12.39
2022-09-09T00:04:48.510Z,12.42
2022-09-09T00:05:48.545Z,12.42
2022-09-09T00:06:48.490Z,12.39
2022-09-09T00:07:48.516Z,12.35
2022-09-09T00:08:48.477Z,12.29
2022-09-09T00:09:48.494Z,12.27
2022-09-09T00:10:48.465Z,12.25
2022-09-09T00:11:48.444Z,12.25
2022-09-09T00:12:48.404Z,12.25
2022-09-09T00:13:48.390Z,12.36
2022-09-09T00:14:48.398Z,12.37
2022-09-09T00:15:48.492Z,12.40
2022-09-09T00:16:48.384Z,12.42
2022-09-09T00:17:48.354Z,12.37
2022-09-09T00:18:48.349Z,12.35
2022-09-09T00:19:48.350Z,12.32
2022-09-09T00:20:48.389Z,12.29
2022-09-09T00:21:48.361Z,12.29
2022-09-09T00:22:48.320Z,12.28
2022-09-09T00:23:48.315Z,12.27
2022-09-09T00:24:48.319Z,12.27
2022-09-09T00:25:52.249Z,12.24
2022-09-09T00:26:48.265Z,12.24
2022-09-09T00:27:48.277Z,12.21
2022-09-09T00:28:48.239Z,12.21
2022-09-09T00:29:48.239Z,12.18
2022-09-09T00:30:48.263Z,12.18
2022-09-09T00:31:48.221Z,12.15
2022-09-09T00:32:48.212Z,12.13
2022-09-09T00:33:48.189Z,12.07
2022-09-09T00:34:48.186Z,12.07
2022-09-09T00:35:48.233Z,12.06
2022-09-09T00:36:48.161Z,12.12
2022-09-09T00:37:48.156Z,12.10
2022-09-09T00:38:48.120Z,12.12
2022-09-09T00:39:48.166Z,12.17
2022-09-09T00:40:48.169Z,12.18
2022-09-09T00:41:48.114Z,12.22
2022-09-09T00:42:48.235Z,12.20
2022-09-09T00:43:48.070Z,12.22
2022-09-09T00:44:48.046Z,12.28
2022-09-09T00:45:48.158Z,12.29
2022-09-09T00:46:48.056Z,12.36
2022-09-09T00:47:48.032Z,12.37
2022-09-09T00:48:48.023Z,12.40
2022-09-09T00:49:48.023Z,12.40
2022-09-09T00:50:48.041Z,12.42
2022-09-09T00:51:48.016Z,12.42
2022-09-09T00:52:47.967Z,12.42
2022-09-09T00:53:47.973Z,12.40
2022-09-09T00:54:47.966Z,12.42
2022-09-09T00:55:48.013Z,12.39
2022-09-09T00:56:47.944Z,12.36
2022-09-09T00:57:47.947Z,12.35
2022-09-09T00:58:47.929Z,12.31
2022-09-09T00:59:47.915Z,12.35
2022-09-09T01:00:47.948Z,12.36
2022-09-09T01:01:47.943Z,12.39
2022-09-09T01:02:47.906Z,12.36
2022-09-09T01:03:47.851Z,12.35
2022-09-09T01:04:47.864Z,12.28
2022-09-09T01:05:47.895Z,12.28
2022-09-09T01:06:47.857Z,12.27
2022-09-09T01:07:47.807Z,12.22
2022-09-09T01:08:47.820Z,12.20
2022-09-09T01:09:47.794Z,12.20
2022-09-09T01:10:47.819Z,12.20
2022-09-09T01:11:47.804Z,12.21
2022-09-09T01:12:47.755Z,12.25
2022-09-09T01:13:47.738Z,12.31
2022-09-09T01:14:47.729Z,12.29
2022-09-09T01:15:47.789Z,12.29
2022-09-09T01:16:47.760Z,12.28
2022-09-09T01:17:47.726Z,12.27
2022-09-09T01:18:47.722Z,12.29
2022-09-09T01:19:47.684Z,12.28
2022-09-09T01:20:47.735Z,12.27
2022-09-09T01:21:47.679Z,12.22
2022-09-09T01:22:47.665Z,12.22
2022-09-09T01:23:47.627Z,12.24
2022-09-09T01:24:47.647Z,12.24
2022-09-09T01:25:47.670Z,12.25
2022-09-09T01:26:47.627Z,12.24
2022-09-09T01:27:47.610Z,12.24
2022-09-09T01:28:47.605Z,12.21
2022-09-09T01:29:47.577Z,12.21
2022-09-09T01:30:47.757Z,12.21
2022-09-09T01:31:47.558Z,12.18
2022-09-09T01:32:47.564Z,12.18
2022-09-09T01:33:47.541Z,12.35
2022-09-09T01:34:47.526Z,12.42
2022-09-09T01:35:47.541Z,12.42
2022-09-09T01:36:47.499Z,12.39
2022-09-09T01:37:47.495Z,12.37
2022-09-09T01:38:47.471Z,12.36
2022-09-09T01:39:47.531Z,12.35
2022-09-09T01:40:47.506Z,12.31
2022-09-09T01:41:47.448Z,12.25
2022-09-09T01:42:47.441Z,12.20
2022-09-09T01:43:47.415Z,12.17
2022-09-09T01:44:47.409Z,12.12
2022-09-09T01:45:47.477Z,12.07
2022-09-09T01:46:47.416Z,12.04
2022-09-09T01:47:47.377Z,12.03
2022-09-09T01:48:47.384Z,12.00
2022-09-09T01:49:47.368Z,12.03
2022-09-09T01:50:47.398Z,12.07
2022-09-09T01:51:47.307Z,12.15
2022-09-09T01:52:47.335Z,12.12
2022-09-09T01:53:47.318Z,12.13
2022-09-09T01:54:47.292Z,12.07
2022-09-09T01:55:47.323Z,12.07
2022-09-09T01:56:47.289Z,12.12
2022-09-09T01:57:47.285Z,12.12
2022-09-09T01:58:47.285Z,12.07
2022-09-09T01:59:47.251Z,12.03
2022-09-09T02:00:47.336Z,12.02
2022-09-09T02:01:47.222Z,11.97
2022-09-09T02:02:47.293Z,11.91
2022-09-09T02:03:47.183Z,11.88
2022-09-09T02:04:47.193Z,11.88
2022-09-09T02:05:47.222Z,11.88
2022-09-09T02:06:47.178Z,11.84
2022-09-09T02:07:47.146Z,11.81
2022-09-09T02:08:47.159Z,11.77
2022-09-09T02:09:47.139Z,11.73
2022-09-09T02:10:47.167Z,11.66
2022-09-09T02:11:47.129Z,11.62
2022-09-09T02:12:47.091Z,11.60
2022-09-09T02:13:47.081Z,11.59
2022-09-09T02:14:47.059Z,11.59
2022-09-09T02:15:47.096Z,11.57
2022-09-09T02:16:47.113Z,11.62
2022-09-09T02:17:47.044Z,11.63
2022-09-09T02:18:47.033Z,11.63
2022-09-09T02:19:47.051Z,11.60
2022-09-09T02:20:47.060Z,11.59
2022-09-09T02:21:47.006Z,11.55
2022-09-09T02:22:47.039Z,11.51
2022-09-09T02:23:46.966Z,11.45
2022-09-09T02:24:46.984Z,11.41
2022-09-09T02:25:47.018Z,11.43
2022-09-09T02:26:46.985Z,11.43
2022-09-09T02:27:46.943Z,11.43
2022-09-09T02:28:46.925Z,11.44
2022-09-09T02:29:46.935Z,11.44
2022-09-09T02:30:46.980Z,11.41
2022-09-09T02:31:46.899Z,11.43
2022-09-09T02:32:46.883Z,11.47
2022-09-09T02:33:46.873Z,11.51
2022-09-09T02:34:46.932Z,11.50
2022-09-09T02:35:46.846Z,11.51
2022-09-09T02:36:46.855Z,11.51
2022-09-09T02:37:46.820Z,11.50
2022-09-09T02:38:46.810Z,11.43
2022-09-09T02:39:46.824Z,11.37
2022-09-09T02:40:46.836Z,11.33
2022-09-09T02:41:46.766Z,11.30
2022-09-09T02:42:46.744Z,11.30
2022-09-09T02:43:46.735Z,11.33
2022-09-09T02:44:46.753Z,11.32
2022-09-09T02:45:46.860Z,11.30
2022-09-09T02:46:46.722Z,11.30
2022-09-09T02:47:46.709Z,11.32
2022-09-09T02:48:46.705Z,11.32
2022-09-09T02:49:46.710Z,11.37
2022-09-09T02:50:46.719Z,11.37
2022-09-09T02:51:46.674Z,11.43
2022-09-09T02:52:46.656Z,11.48
2022-09-09T02:53:46.648Z,11.51
2022-09-09T02:54:46.648Z,11.55
2022-09-09T02:55:46.683Z,11.52
2022-09-09T02:56:46.618Z,11.48
2022-09-09T02:57:46.604Z,11.43
2022-09-09T02:58:46.616Z,11.43
2022-09-09T02:59:46.579Z,11.43
2022-09-09T03:00:46.632Z,11.41
2022-09-09T03:01:46.550Z,11.37
2022-09-09T03:02:46.583Z,11.36
2022-09-09T03:03:46.545Z,11.30
2022-09-09T03:04:46.503Z,11.25
2022-09-09T03:05:46.548Z,11.25
2022-09-09T03:06:46.505Z,11.19
2022-09-09T03:07:46.487Z,11.25
2022-09-09T03:08:49.363Z,11.22
2022-09-09T03:09:46.473Z,11.17
2022-09-09T03:10:46.494Z,11.17
2022-09-09T03:11:46.415Z,11.15
2022-09-09T03:12:46.412Z,11.14
2022-09-09T03:13:46.395Z,11.15
2022-09-09T03:14:46.452Z,11.17
2022-09-09T03:15:46.431Z,11.12
2022-09-09T03:16:46.422Z,11.10
2022-09-09T03:17:46.396Z,11.07
2022-09-09T03:18:46.351Z,11.05
2022-09-09T03:19:46.375Z,11.04
2022-09-09T03:20:46.396Z,11.08
2022-09-09T03:21:46.335Z,11.11
2022-09-09T03:22:46.327Z,11.14
2022-09-09T03:23:46.298Z,11.15
2022-09-09T03:24:46.299Z,11.22
2022-09-09T03:25:46.321Z,11.23
2022-09-09T03:26:46.316Z,11.22
2022-09-09T03:27:46.250Z,11.18
2022-09-09T03:28:46.252Z,11.15
2022-09-09T03:29:46.232Z,11.12
2022-09-09T03:30:46.275Z,11.10
2022-09-09T03:31:46.353Z,11.07
2022-09-09T03:32:49.002Z,11.04
2022-09-09T03:33:46.215Z,11.04
2022-09-09T03:34:46.171Z,10.96
2022-09-09T03:35:46.200Z,10.96
2022-09-09T03:36:46.158Z,10.94
2022-09-09T03:37:46.136Z,10.94
2022-09-09T03:38:46.137Z,10.94
2022-09-09T03:39:46.145Z,10.94
2022-09-09T03:40:46.136Z,10.97
2022-09-09T03:41:46.109Z,10.97
2022-09-09T03:42:46.069Z,10.97
2022-09-09T03:43:46.060Z,10.97
2022-09-09T03:44:46.066Z,11.00
2022-09-09T03:45:46.096Z,10.97
2022-09-09T03:46:46.045Z,10.97
2022-09-09T03:47:46.038Z,10.99
2022-09-09T03:48:46.008Z,10.96
2022-09-09T03:49:46.018Z,10.93
2022-09-09T03:50:46.060Z,10.89
2022-09-09T03:51:45.973Z,10.82
2022-09-09T03:52:45.964Z,10.81
2022-09-09T03:53:45.949Z,10.79
2022-09-09T03:54:45.966Z,10.75
2022-09-09T03:55:45.983Z,10.75
2022-09-09T03:56:45.953Z,10.72
2022-09-09T03:57:45.925Z,10.76
2022-09-09T03:58:45.890Z,10.74
2022-09-09T03:59:45.912Z,10.78
2022-09-09T04:00:46.102Z,10.79
2022-09-09T04:01:45.923Z,10.74
2022-09-09T04:02:45.859Z,10.72
2022-09-09T04:03:45.836Z,10.74
2022-09-09T04:04:45.835Z,10.68
2022-09-09T04:05:45.855Z,10.68
2022-09-09T04:06:45.822Z,10.69
2022-09-09T04:07:45.802Z,10.69
2022-09-09T04:08:45.793Z,10.71
2022-09-09T04:09:45.786Z,10.71
2022-09-09T04:10:45.805Z,10.72
2022-09-09T04:11:45.745Z,10.72
2022-09-09T04:12:48.988Z,10.79
2022-09-09T04:13:45.726Z,10.82
2022-09-09T04:14:45.734Z,10.79
2022-09-09T04:15:45.746Z,10.75
2022-09-09T04:16:45.941Z,10.75
2022-09-09T04:17:45.696Z,10.75
2022-09-09T04:18:45.711Z,10.75
2022-09-09T04:19:45.671Z,10.84
2022-09-09T04:20:45.688Z,10.89
2022-09-09T04:21:45.640Z,10.94
2022-09-09T04:22:45.649Z,10.94
2022-09-09T04:23:45.633Z,10.96
2022-09-09T04:24:48.775Z,10.94
2022-09-09T04:25:45.656Z,10.94
2022-09-09T04:26:45.578Z,10.93
2022-09-09T04:27:45.586Z,10.92
2022-09-09T04:28:45.555Z,10.89
2022-09-09T04:29:45.558Z,10.93
2022-09-09T04:30:45.586Z,10.97
2022-09-09T04:31:45.563Z,11.04
2022-09-09T04:32:45.520Z,11.07
2022-09-09T04:33:45.504Z,11.08
2022-09-09T04:34:45.504Z,11.08
2022-09-09T04:35:45.529Z,11.10
2022-09-09T04:36:45.473Z,11.08
2022-09-09T04:37:45.468Z,11.05
2022-09-09T04:38:45.477Z,11.05
2022-09-09T04:39:45.474Z,11.05
2022-09-09T04:40:45.447Z,11.04
2022-09-09T04:41:45.385Z,11.04
2022-09-09T04:42:45.389Z,11.00
2022-09-09T04:43:45.407Z,11.02
2022-09-09T04:44:45.385Z,11.00
2022-09-09T04:45:45.425Z,10.99
2022-09-09T04:46:45.355Z,11.04
2022-09-09T04:47:45.373Z,11.04
2022-09-09T04:48:45.349Z,11.04
2022-09-09T04:49:45.318Z,11.04
2022-09-09T04:50:45.335Z,11.04
2022-09-09T04:51:45.287Z,11.10
2022-09-09T04:52:45.295Z,11.11
2022-09-09T04:53:45.290Z,11.11
2022-09-09T04:54:45.289Z,11.08
2022-09-09T04:55:45.300Z,11.10
2022-09-09T04:56:45.240Z,11.08
2022-09-09T04:57:45.230Z,11.07
2022-09-09T04:58:45.210Z,11.08
2022-09-09T04:59:45.233Z,11.05
2022-09-09T05:00:45.306Z,11.07
2022-09-09T05:01:45.259Z,11.08
2022-09-09T05:02:45.198Z,11.14
2022-09-09T05:03:45.157Z,11.26
2022-09-09T05:04:45.183Z,11.37
2022-09-09T05:05:45.167Z,11.50
2022-09-09T05:06:45.146Z,11.66
2022-09-09T05:07:45.120Z,11.83
2022-09-09T05:08:45.120Z,12.03
2022-09-09T05:09:45.129Z,12.18
2022-09-09T05:10:45.059Z,12.36
2022-09-09T05:11:45.047Z,12.53
2022-09-09T05:12:45.064Z,12.70
2022-09-09T05:13:45.071Z,12.83
2022-09-09T05:14:45.035Z,13.03
2022-09-09T05:15:45.069Z,13.18
2022-09-09T05:16:45.089Z,13.37
2022-09-09T05:17:44.998Z,13.53
2022-09-09T05:18:45.013Z,13.70
2022-09-09T05:19:44.984Z,13.83
2022-09-09T05:20:44.998Z,13.79
2022-09-09T05:21:44.951Z,13.75
2022-09-09T05:22:44.964Z,13.71
2022-09-09T05:23:44.959Z,13.63
2022-09-09T05:24:44.938Z,13.70
2022-09-09T05:25:44.977Z,13.63
2022-09-09T05:26:44.896Z,13.53
2022-09-09T05:27:44.914Z,13.44
2022-09-09T05:28:44.872Z,13.37
2022-09-09T05:29:44.883Z,13.22
2022-09-09T05:30:44.903Z,13.15
2022-09-09T05:31:44.883Z,13.18
2022-09-09T05:32:44.839Z,13.13
2022-09-09T05:33:44.845Z,13.12
2022-09-09T05:34:44.833Z,13.19
2022-09-09T05:35:44.847Z,13.22
2022-09-09T05:36:44.818Z,13.33
2022-09-09T05:37:44.784Z,13.33
2022-09-09T05:38:44.746Z,13.33
2022-09-09T05:39:44.779Z,13.33
2022-09-09T05:40:44.772Z,13.33
2022-09-09T05:41:44.735Z,13.35
2022-09-09T05:42:44.723Z,13.35
2022-09-09T05:43:44.700Z,13.37
2022-09-09T05:44:44.687Z,13.41
2022-09-09T05:45:44.729Z,13.46
2022-09-09T05:46:44.743Z,13.50
2022-09-09T05:47:44.664Z,13.50
2022-09-09T05:48:44.651Z,13.53
2022-09-09T05:49:44.630Z,13.50
2022-09-09T05:50:44.654Z,13.52
2022-09-09T05:51:44.633Z,13.53
2022-09-09T05:52:44.611Z,13.53
2022-09-09T05:53:44.589Z,13.56
2022-09-09T05:54:44.584Z,13.57
2022-09-09T05:55:44.627Z,13.57
2022-09-09T05:56:46.174Z,13.60
2022-09-09T05:57:44.579Z,13.65
2022-09-09T05:58:44.536Z,13.67
2022-09-09T05:59:44.537Z,13.71
2022-09-09T06:00:44.583Z,13.74
2022-09-09T06:01:44.587Z,13.75
2022-09-09T06:02:44.610Z,13.79
2022-09-09T06:03:44.499Z,13.89
2022-09-09T06:04:44.469Z,13.96
2022-09-09T06:05:44.514Z,14.04
2022-09-09T06:06:44.465Z,14.14
2022-09-09T06:07:44.443Z,14.22
2022-09-09T06:08:44.411Z,14.26
2022-09-09T06:09:44.415Z,14.35
2022-09-09T06:10:44.439Z,14.44
2022-09-09T06:11:44.386Z,14.58
2022-09-09T06:12:44.364Z,14.62
2022-09-09T06:13:44.377Z,14.59
2022-09-09T06:14:46.415Z,14.59
2022-09-09T06:15:44.402Z,14.63
2022-09-09T06:16:44.395Z,14.77
2022-09-09T06:17:44.339Z,14.88
2022-09-09T06:18:44.303Z,15.03
2022-09-09T06:19:44.305Z,15.17
2022-09-09T06:20:44.324Z,15.37
2022-09-09T06:21:44.264Z,15.55
2022-09-09T06:22:44.276Z,15.68
2022-09-09T06:23:44.252Z,15.86
2022-09-09T06:24:44.254Z,15.86
2022-09-09T06:25:44.254Z,15.86
2022-09-09T06:26:44.244Z,15.90
2022-09-09T06:27:44.211Z,16.09
2022-09-09T06:28:44.203Z,16.38
2022-09-09T06:29:44.199Z,16.60
2022-09-09T06:30:44.219Z,16.81
2022-09-09T06:31:44.256Z,16.79
2022-09-09T06:32:44.158Z,17.06
2022-09-09T06:33:44.163Z,17.36
2022-09-09T06:34:44.124Z,17.68
2022-09-09T06:35:44.143Z,17.85
2022-09-09T06:36:44.073Z,17.94
2022-09-09T06:37:44.092Z,18.08
2022-09-09T06:38:44.096Z,18.08
2022-09-09T06:39:44.121Z,18.26
2022-09-09T06:40:44.109Z,18.40
2022-09-09T06:41:44.132Z,18.52
2022-09-09T06:42:44.049Z,18.58
2022-09-09T06:43:44.035Z,18.53
2022-09-09T06:44:44.006Z,18.33
2022-09-09T06:45:44.071Z,18.37
2022-09-09T06:46:44.037Z,18.35
2022-09-09T06:47:44.015Z,18.31
2022-09-09T06:48:43.982Z,18.16
2022-09-09T06:49:47.750Z,18.47
2022-09-09T06:50:43.964Z,18.77
2022-09-09T06:51:44.227Z,18.74
2022-09-09T06:52:43.933Z,18.90
2022-09-09T06:53:43.912Z,19.11
2022-09-09T06:54:43.932Z,19.34
2022-09-09T06:55:43.902Z,19.51
2022-09-09T06:56:43.919Z,19.54
2022-09-09T06:57:43.872Z,19.73
2022-09-09T06:58:43.844Z,19.99
2022-09-09T06:59:43.858Z,20.13
2022-09-09T07:00:43.875Z,20.11
2022-09-09T07:01:43.904Z,20.21
2022-09-09T07:02:43.834Z,20.29
2022-09-09T07:03:43.803Z,20.43
2022-09-09T07:04:43.791Z,20.47
2022-09-09T07:05:43.772Z,20.47
2022-09-09T07:06:43.798Z,20.32
2022-09-09T07:07:43.754Z,20.04
2022-09-09T07:08:55.319Z,20.04
2022-09-09T07:09:44.743Z,20.28
2022-09-09T07:10:43.729Z,20.65
2022-09-09T07:11:43.770Z,20.93
2022-09-09T07:12:43.715Z,21.02
2022-09-09T07:13:43.699Z,21.02
2022-09-09T07:14:43.683Z,20.85
2022-09-09T07:15:43.726Z,20.75
2022-09-09T07:16:43.699Z,20.80
2022-09-09T07:17:43.651Z,20.72
2022-09-09T07:18:43.644Z,20.85
2022-09-09T07:19:43.649Z,20.74
2022-09-09T07:20:43.628Z,20.77
2022-09-09T07:21:43.640Z,20.50
2022-09-09T07:22:43.610Z,20.58
2022-09-09T07:23:43.585Z,20.74
2022-09-09T07:24:43.609Z,20.93
2022-09-09T07:25:43.560Z,21.37
2022-09-09T07:26:43.595Z,21.61
2022-09-09T07:27:43.542Z,21.98
2022-09-09T07:28:43.547Z,22.15
2022-09-09T07:29:43.530Z,22.11
2022-09-09T07:30:43.525Z,22.33
2022-09-09T07:31:43.597Z,22.38
2022-09-09T07:32:43.517Z,22.54
2022-09-09T07:33:43.485Z,22.43
2022-09-09T07:34:43.455Z,22.50
2022-09-09T07:35:43.470Z,22.91
2022-09-09T07:36:43.460Z,23.27
2022-09-09T07:37:45.746Z,23.58
2022-09-09T07:38:44.404Z,23.77
2022-09-09T07:39:43.441Z,23.18
2022-09-09T07:40:43.403Z,22.85
2022-09-09T07:41:43.469Z,22.94
2022-09-09T07:42:43.369Z,23.50
2022-09-09T07:43:43.368Z,23.36
2022-09-09T07:44:43.362Z,23.46
2022-09-09T07:45:43.364Z,23.76
2022-09-09T07:46:43.439Z,24.13
2022-09-09T07:47:43.344Z,24.35
2022-09-09T07:48:43.293Z,25.01
2022-09-09T07:49:43.306Z,25.08
2022-09-09T07:50:43.269Z,24.50
2022-09-09T07:51:43.315Z,24.47
2022-09-09T07:52:43.261Z,24.43
2022-09-09T07:53:43.264Z,24.01
2022-09-09T07:54:43.249Z,24.24
2022-09-09T07:55:43.241Z,24.17
2022-09-09T07:56:43.251Z,24.18
2022-09-09T07:57:43.207Z,24.18
2022-09-09T07:58:43.201Z,24.48
2022-09-09T07:59:43.195Z,24.16
2022-09-09T08:00:43.185Z,24.48
2022-09-09T08:01:43.245Z,24.68
2022-09-09T08:02:43.209Z,25.06
2022-09-09T08:03:43.144Z,25.21
2022-09-09T08:04:43.118Z,24.88
2022-09-09T08:05:43.114Z,24.33
2022-09-09T08:06:43.159Z,24.10
2022-09-09T08:07:43.100Z,24.38
2022-09-09T08:08:43.078Z,24.54
2022-09-09T08:09:43.120Z,24.89
2022-09-09T08:10:43.061Z,25.23
2022-09-09T08:11:43.092Z,25.85
2022-09-09T08:13:01.346Z,26.03
2022-09-09T08:13:44.058Z,26.15
2022-09-09T08:14:43.022Z,26.06
2022-09-09T08:15:43.084Z,26.18
2022-09-09T08:16:43.025Z,26.31
2022-09-09T08:17:42.986Z,26.34
2022-09-09T08:18:42.967Z,26.43
2022-09-09T08:19:42.944Z,25.80
2022-09-09T08:20:42.981Z,25.48
2022-09-09T08:21:43.017Z,25.33
2022-09-09T08:22:42.939Z,25.51
2022-09-09T08:23:42.927Z,25.59
2022-09-09T08:24:42.939Z,25.72
2022-09-09T08:25:42.920Z,26.00
2022-09-09T08:26:42.945Z,26.59
2022-09-09T08:27:42.913Z,27.10
2022-09-09T08:28:42.852Z,27.00
2022-09-09T08:29:42.853Z,27.07
2022-09-09T08:30:42.861Z,27.05
2022-09-09T08:31:42.890Z,26.66
2022-09-09T08:32:45.554Z,26.93
2022-09-09T08:33:42.827Z,26.99
2022-09-09T08:34:46.726Z,27.17
2022-09-09T08:35:42.797Z,27.49
2022-09-09T08:36:42.832Z,27.80
2022-09-09T08:37:42.771Z,28.17
2022-09-09T08:38:42.755Z,28.19
2022-09-09T08:39:42.771Z,27.96
2022-09-09T08:40:42.758Z,27.89
2022-09-09T08:41:42.732Z,27.80
2022-09-09T08:42:42.744Z,27.92
2022-09-09T08:43:42.709Z,27.67
2022-09-09T08:44:46.860Z,28.20
2022-09-09T08:45:43.688Z,28.67
2022-09-09T08:46:42.776Z,28.56
2022-09-09T08:47:42.681Z,28.14
2022-09-09T08:48:42.674Z,28.45
2022-09-09T08:49:42.640Z,27.86
2022-09-09T08:50:42.659Z,27.27
2022-09-09T08:51:42.673Z,27.54
2022-09-09T08:52:42.591Z,27.30
2022-09-09T08:53:42.597Z,27.58
2022-09-09T08:54:52.220Z,28.37
2022-09-09T08:55:43.612Z,28.78
2022-09-09T08:56:42.607Z,29.10
2022-09-09T08:57:42.562Z,29.54
2022-09-09T08:58:42.531Z,30.16
2022-09-09T08:59:42.531Z,30.32
2022-09-09T09:00:42.509Z,29.65
2022-09-09T09:01:42.584Z,29.54
2022-09-09T09:02:42.480Z,30.02
2022-09-09T09:03:42.462Z,30.05
2022-09-09T09:04:42.572Z,30.48
2022-09-09T09:05:42.485Z,30.08
2022-09-09T09:06:42.478Z,30.55
2022-09-09T09:07:42.477Z,30.59
2022-09-09T09:08:42.417Z,29.95
2022-09-09T09:09:42.450Z,29.95
2022-09-09T09:10:43.038Z,30.30
2022-09-09T09:11:42.397Z,30.66
2022-09-09T09:12:42.435Z,30.62
2022-09-09T09:13:44.002Z,31.00
2022-09-09T09:14:44.574Z,30.70
2022-09-09T09:15:42.390Z,30.23
2022-09-09T09:16:42.344Z,30.53
2022-09-09T09:17:42.369Z,30.70
2022-09-09T09:18:42.348Z,30.96
2022-09-09T09:19:42.329Z,30.66
2022-09-09T09:20:42.304Z,31.15
2022-09-09T09:21:42.291Z,31.02
2022-09-09T09:22:42.308Z,30.40
2022-09-09T09:23:42.300Z,30.48
2022-09-09T09:24:42.251Z,30.70
2022-09-09T09:25:42.250Z,30.90
2022-09-09T09:26:42.271Z,31.03
2022-09-09T09:27:42.260Z,31.33
2022-09-09T09:28:42.209Z,31.36
2022-09-09T09:30:04.148Z,30.85
2022-09-09T09:30:43.236Z,30.73
2022-09-09T09:31:42.211Z,31.02
2022-09-09T09:32:42.196Z,31.37
2022-09-09T09:33:42.155Z,31.76
2022-09-09T09:34:42.165Z,31.92
2022-09-09T09:35:44.428Z,31.81
2022-09-09T09:36:42.173Z,31.33
2022-09-09T09:40:43.070Z,32.22
2022-09-09T09:41:42.109Z,32.60
2022-09-09T09:42:42.065Z,31.81
2022-09-09T09:43:42.062Z,31.03
2022-09-09T09:44:42.052Z,30.19
2022-09-09T09:45:46.742Z,30.27
2022-09-09T09:46:43.077Z,30.40
2022-09-09T09:47:42.028Z,31.02
2022-09-09T09:48:42.019Z,31.27
2022-09-09T09:49:42.009Z,31.31
2022-09-09T09:50:41.982Z,31.33
2022-09-09T09:51:42.007Z,31.70
2022-09-09T09:52:41.965Z,31.39
2022-09-09T09:53:41.967Z,29.86
2022-09-09T09:54:41.958Z,29.16
2022-09-09T09:55:41.935Z,29.44
2022-09-09T09:56:41.972Z,29.53
2022-09-09T09:57:41.932Z,29.72
2022-09-09T09:58:41.934Z,28.22
2022-09-09T09:59:41.984Z,27.18
2022-09-09T10:00:41.900Z,25.98
2022-09-09T10:01:41.958Z,26.34
2022-09-09T10:02:41.837Z,26.16
2022-09-09T10:03:41.823Z,26.26
2022-09-09T10:04:41.900Z,26.83
2022-09-09T10:05:41.819Z,28.04
2022-09-09T10:06:41.820Z,28.86
2022-09-09T10:07:41.860Z,29.57
2022-09-09T10:08:41.804Z,30.15
2022-09-09T10:09:41.769Z,30.53
2022-09-09T10:10:45.030Z,30.90
2022-09-09T10:11:42.831Z,31.51
2022-09-09T10:12:41.774Z,31.94
2022-09-09T10:13:41.741Z,30.65
2022-09-09T10:14:41.749Z,29.79
2022-09-09T10:15:41.811Z,29.97
2022-09-09T10:16:41.715Z,30.91
2022-09-09T10:17:41.764Z,30.81
2022-09-09T10:18:41.703Z,30.75
2022-09-09T10:19:41.695Z,31.42
2022-09-09T10:20:41.665Z,32.31
2022-09-09T10:21:41.665Z,32.87
2022-09-09T10:22:41.694Z,33.34
2022-09-09T10:23:41.633Z,33.55
2022-09-09T10:24:41.681Z,33.43
2022-09-09T10:25:41.621Z,32.83
2022-09-09T10:26:41.616Z,33.23
2022-09-09T10:27:41.635Z,33.59
2022-09-09T10:28:41.614Z,33.61
2022-09-09T10:29:41.613Z,33.81
2022-09-09T10:30:41.591Z,32.53
2022-09-09T10:31:41.556Z,30.99
2022-09-09T10:32:41.586Z,30.21
2022-09-09T10:33:41.546Z,29.87
2022-09-09T10:34:41.551Z,29.47
2022-09-09T10:35:41.524Z,28.78
2022-09-09T10:36:41.515Z,28.26
2022-09-09T10:37:41.534Z,27.83
2022-09-09T10:38:41.478Z,27.36
2022-09-09T10:39:43.146Z,26.93
2022-09-09T10:40:41.473Z,26.48
2022-09-09T10:41:41.445Z,25.95
2022-09-09T10:42:41.495Z,25.48
2022-09-09T10:43:41.441Z,25.31
2022-09-09T10:44:41.414Z,24.78
2022-09-09T10:45:41.412Z,24.63
2022-09-09T10:46:41.462Z,24.40
2022-09-09T10:47:41.423Z,24.08
2022-09-09T10:48:41.377Z,23.98
2022-09-09T10:49:41.368Z,23.71
2022-09-09T10:51:42.502Z,23.27
2022-09-09T10:52:41.600Z,23.24
2022-09-09T10:53:41.321Z,23.32
2022-09-09T10:54:41.319Z,23.18
2022-09-09T10:55:41.309Z,23.23
2022-09-09T10:56:41.305Z,23.28
2022-09-09T10:57:41.302Z,23.28
2022-09-09T10:58:41.250Z,23.31
2022-09-09T10:59:41.251Z,23.28
2022-09-09T11:00:41.236Z,23.34
2022-09-09T11:01:41.284Z,23.43
2022-09-09T11:02:41.292Z,23.50
2022-09-09T11:03:41.245Z,23.46
2022-09-09T11:04:41.198Z,23.41
2022-09-09T11:05:41.188Z,23.59
2022-09-09T11:06:41.220Z,23.81
2022-09-09T11:07:41.226Z,24.11
2022-09-09T11:08:41.172Z,24.14
2022-09-09T11:09:41.153Z,24.36
2022-09-09T11:10:41.144Z,24.63
2022-09-09T11:11:41.119Z,24.55
2022-09-09T11:12:41.159Z,24.54
2022-09-09T11:13:41.110Z,24.57
2022-09-09T11:14:41.098Z,24.66
2022-09-09T11:15:41.085Z,24.81
2022-09-09T11:16:41.116Z,24.81
2022-09-09T11:17:41.101Z,24.80
2022-09-09T11:18:41.052Z,24.93
2022-09-09T11:19:41.039Z,25.07
2022-09-09T11:20:41.034Z,24.80
2022-09-09T11:21:41.009Z,24.73
2022-09-09T11:22:41.053Z,24.77
2022-09-09T11:23:42.093Z,24.69
2022-09-09T11:24:40.978Z,24.43
2022-09-09T11:25:40.982Z,24.40
2022-09-09T11:26:40.982Z,24.51
2022-09-09T11:27:41.034Z,24.68
2022-09-09T11:28:40.944Z,25.17
2022-09-09T11:29:40.906Z,25.50
2022-09-09T11:30:57.422Z,25.81
2022-09-09T11:31:41.907Z,26.23
2022-09-09T11:32:40.921Z,26.19
2022-09-09T11:33:40.916Z,26.18
2022-09-09T11:34:40.885Z,26.28
2022-09-09T11:35:40.860Z,26.25
2022-09-09T11:36:40.833Z,26.68
2022-09-09T11:37:40.852Z,26.70
2022-09-09T11:38:40.871Z,27.39
2022-09-09T11:39:40.898Z,27.11
2022-09-09T11:40:40.820Z,27.12
2022-09-09T11:41:40.784Z,26.68
2022-09-09T11:42:40.795Z,26.78
2022-09-09T11:43:40.794Z,27.63
2022-09-09T11:44:40.782Z,28.54
2022-09-09T11:45:40.798Z,28.89
2022-09-09T11:46:40.833Z,28.17
2022-09-09T11:47:40.749Z,27.59
2022-09-09T11:48:40.797Z,27.07
2022-09-09T11:49:40.720Z,26.81
2022-09-09T11:50:40.707Z,26.36
2022-09-09T11:51:40.717Z,26.13
2022-09-09T11:52:40.675Z,25.90
2022-09-09T11:53:40.702Z,25.51
2022-09-09T11:54:40.669Z,25.55
2022-09-09T11:55:40.653Z,25.14
2022-09-09T11:56:40.624Z,25.08
2022-09-09T11:57:40.635Z,25.29
2022-09-09T11:58:40.652Z,25.60
2022-09-09T11:59:40.602Z,25.84
2022-09-09T12:00:40.579Z,25.93
2022-09-09T12:01:40.575Z,26.05
2022-09-09T12:02:40.602Z,26.33
2022-09-09T12:03:40.601Z,26.33
2022-09-09T12:04:40.634Z,27.25
2022-09-09T12:05:40.541Z,28.66
2022-09-09T12:06:40.545Z,29.78
2022-09-09T12:07:40.527Z,30.28
2022-09-09T12:08:40.569Z,30.66
2022-09-09T12:09:40.503Z,31.05
2022-09-09T12:10:40.493Z,31.51
2022-09-09T12:11:40.489Z,31.99
2022-09-09T12:12:44.044Z,32.59
2022-09-09T12:13:40.504Z,33.32
2022-09-09T12:14:40.475Z,32.56
2022-09-09T12:15:40.454Z,32.73
2022-09-09T12:16:40.500Z,32.12
2022-09-09T12:17:40.474Z,32.08
2022-09-09T12:18:40.422Z,31.43
2022-09-09T12:19:40.420Z,31.90
2022-09-09T12:20:40.436Z,31.58
2022-09-09T12:21:40.394Z,31.99
2022-09-09T12:22:40.373Z,31.93
2022-09-09T12:23:40.566Z,32.07
2022-09-09T12:24:40.360Z,32.00
2022-09-09T12:25:40.348Z,32.18
2022-09-09T12:26:40.356Z,32.23
2022-09-09T12:27:40.295Z,32.23
2022-09-09T12:28:40.335Z,32.43
2022-09-09T12:29:40.306Z,32.40
2022-09-09T12:30:40.304Z,32.48
2022-09-09T12:31:43.902Z,32.85
2022-09-09T12:32:41.258Z,32.40
2022-09-09T12:33:41.065Z,32.40
2022-09-09T12:34:40.256Z,31.54
2022-09-09T12:35:40.231Z,30.12
2022-09-09T12:36:40.224Z,29.17
2022-09-09T12:37:46.759Z,28.93
2022-09-09T12:38:40.269Z,28.64
2022-09-09T12:39:40.242Z,28.01
2022-09-09T12:40:40.172Z,27.55
2022-09-09T12:41:40.188Z,27.10
2022-09-09T12:42:41.302Z,26.62
2022-09-09T12:43:40.178Z,26.02
2022-09-09T12:44:40.136Z,25.41
2022-09-09T12:45:40.197Z,25.54
2022-09-09T12:46:40.123Z,25.70
2022-09-09T12:47:40.115Z,25.85
2022-09-09T12:48:40.166Z,25.80
2022-09-09T12:49:40.114Z,25.81
2022-09-09T12:50:40.095Z,26.26
2022-09-09T12:51:40.052Z,27.07
2022-09-09T12:52:40.094Z,27.20
2022-09-09T12:53:40.090Z,27.27
2022-09-09T12:54:40.035Z,27.70
2022-09-09T12:55:40.026Z,27.63
2022-09-09T12:56:40.019Z,27.77